createdAt,value
2022-09-17T00:01:01.926Z,968.32
2022-09-17T00:06:01.895Z,968.36
2022-09-17T00:11:01.788Z,968.44
2022-09-17T00:16:01.777Z,968.38
2022-09-17T00:21:01.670Z,968.37
2022-09-17T00:26:01.638Z,968.39
2022-09-17T00:31:01.599Z,968.38
2022-09-17T00:36:01.488Z,968.36
2022-09-17T00:41:01.417Z,968.38
2022-09-17T00:46:01.358Z,968.35
2022-09-17T00:51:01.282Z,968.42
2022-09-17T00:56:01.266Z,968.44
2022-09-17T01:01:01.266Z,968.46
2022-09-17T01:06:01.091Z,968.45
2022-09-17T01:11:01.001Z,968.53
2022-09-17T01:16:01.025Z,968.53
2022-09-17T01:21:00.882Z,968.63
2022-09-17T01:26:00.812Z,968.70
2022-09-17T01:31:00.790Z,968.70
2022-09-17T01:36:00.668Z,968.78
2022-09-17T01:41:00.604Z,968.79
2022-09-17T01:46:00.549Z,968.79
2022-09-17T01:51:00.473Z,968.78
2022-09-17T01:56:00.413Z,968.75
2022-09-17T02:01:00.453Z,968.69
2022-09-17T02:06:00.282Z,968.67
2022-09-17T02:11:00.203Z,968.74
2022-09-17T02:16:00.238Z,968.77
2022-09-17T02:21:00.110Z,968.76
2022-09-17T02:26:00.017Z,968.68
2022-09-17T02:30:59.962Z,968.62
2022-09-17T02:35:59.886Z,968.60
2022-09-17T02:40:59.818Z,968.62
2022-09-17T02:45:59.755Z,968.57
2022-09-17T02:50:59.693Z,968.56
2022-09-17T02:55:59.630Z,968.50
2022-09-17T03:00:59.655Z,968.46
2022-09-17T03:05:59.498Z,968.31
2022-09-17T03:10:59.514Z,968.24
2022-09-17T03:15:59.464Z,968.21
2022-09-17T03:20:59.298Z,968.19
2022-09-17T03:25:59.237Z,968.19
2022-09-17T03:30:59.199Z,968.19
2022-09-17T03:35:59.118Z,968.16
2022-09-17T03:40:59.039Z,968.22
2022-09-17T03:45:58.978Z,968.28
2022-09-17T03:50:58.908Z,968.27
2022-09-17T03:55:58.849Z,968.11
2022-09-17T04:00:58.778Z,968.03
2022-09-17T04:05:58.731Z,968.03
2022-09-17T04:10:58.659Z,967.92
2022-09-17T04:15:58.634Z,967.92
2022-09-17T04:20:58.529Z,967.84
2022-09-17T04:25:58.510Z,967.84
2022-09-17T04:30:58.418Z,967.88
2022-09-17T04:35:58.346Z,967.76
2022-09-17T04:40:58.271Z,967.73
2022-09-17T04:45:58.221Z,967.77
2022-09-17T04:50:58.150Z,967.81
2022-09-17T04:55:58.091Z,967.89
2022-09-17T05:00:58.084Z,967.96
2022-09-17T05:05:57.966Z,967.97
2022-09-17T05:10:57.914Z,967.94
2022-09-17T05:15:57.912Z,967.80
2022-09-17T05:20:57.774Z,967.86
2022-09-17T05:25:57.723Z,967.99
2022-09-17T05:30:57.715Z,968.06
2022-09-17T05:35:57.574Z,968.09
2022-09-17T05:40:57.512Z,968.20
2022-09-17T05:45:57.447Z,968.26
2022-09-17T05:50:57.431Z,968.64
2022-09-17T05:55:57.324Z,968.82
2022-09-17T06:00:57.272Z,968.83
2022-09-17T06:05:57.186Z,968.92
2022-09-17T06:11:02.118Z,969.04
2022-09-17T06:15:58.091Z,969.14
2022-09-17T06:20:57.316Z,969.10
2022-09-17T06:25:56.934Z,969.10
2022-09-17T06:30:56.917Z,969.16
2022-09-17T06:35:56.796Z,969.18
2022-09-17T06:40:56.728Z,969.19
2022-09-17T06:45:56.668Z,969.14
2022-09-17T06:50:56.600Z,969.06
2022-09-17T06:55:56.539Z,969.08
2022-09-17T07:00:56.494Z,969.09
2022-09-17T07:05:56.411Z,969.13
2022-09-17T07:10:56.349Z,969.08
2022-09-17T07:15:56.379Z,969.01
2022-09-17T07:20:56.216Z,969.00
2022-09-17T07:25:56.158Z,969.11
2022-09-17T07:30:56.140Z,969.11
2022-09-17T07:35:56.031Z,969.16
2022-09-17T07:40:55.968Z,969.06
2022-09-17T07:45:55.897Z,969.00
2022-09-17T07:50:55.840Z,969.00
2022-09-17T07:55:55.760Z,969.06
2022-09-17T08:00:55.690Z,969.11
2022-09-17T08:05:55.640Z,969.11
2022-09-17T08:10:55.571Z,969.21
2022-09-17T08:15:55.567Z,969.23
2022-09-17T08:20:55.441Z,969.36
2022-09-17T08:25:55.363Z,969.37
2022-09-17T08:30:55.375Z,969.37
2022-09-17T08:35:55.263Z,969.34
2022-09-17T08:40:55.184Z,969.40
2022-09-17T08:45:55.114Z,969.32
2022-09-17T08:51:00.638Z,969.26
2022-09-17T08:55:55.984Z,969.31
2022-09-17T09:00:54.913Z,969.33
2022-09-17T09:05:54.852Z,969.33
2022-09-17T09:10:54.795Z,969.43
2022-09-17T09:15:54.760Z,969.56
2022-09-17T09:20:54.649Z,969.59
2022-09-17T09:25:54.575Z,969.63
2022-09-17T09:30:54.515Z,969.63
2022-09-17T09:35:54.459Z,969.58
2022-09-17T09:40:54.411Z,969.64
2022-09-17T09:45:54.324Z,969.67
2022-09-17T09:51:06.257Z,969.66
2022-09-17T09:55:55.206Z,969.59
2022-09-17T10:00:54.193Z,969.66
2022-09-17T10:05:54.109Z,969.62
2022-09-17T10:10:54.018Z,969.63
2022-09-17T10:15:54.012Z,969.67
2022-09-17T10:20:53.898Z,969.68
2022-09-17T10:25:53.829Z,969.69
2022-09-17T10:30:53.946Z,969.71
2022-09-17T10:35:53.689Z,969.68
2022-09-17T10:40:53.639Z,969.73
2022-09-17T10:45:53.600Z,969.75
2022-09-17T10:50:53.535Z,969.76
2022-09-17T10:55:53.440Z,969.76
2022-09-17T11:00:53.391Z,969.70
2022-09-17T11:05:53.331Z,969.66
2022-09-17T11:10:53.283Z,969.70
2022-09-17T11:15:53.343Z,969.70
2022-09-17T11:20:53.155Z,969.67
2022-09-17T11:25:55.181Z,969.64
2022-09-17T11:30:54.098Z,969.62
2022-09-17T11:35:52.952Z,969.54
2022-09-17T11:40:52.906Z,969.55
2022-09-17T11:45:52.822Z,969.63
2022-09-17T11:50:52.766Z,969.62
2022-09-17T11:55:52.693Z,969.62
2022-09-17T12:00:52.654Z,969.50
2022-09-17T12:05:52.584Z,969.43
2022-09-17T12:10:52.520Z,969.36
2022-09-17T12:15:53.660Z,969.37
2022-09-17T12:20:52.395Z,969.24
2022-09-17T12:25:52.326Z,969.16
2022-09-17T12:30:52.274Z,969.13
2022-09-17T12:36:03.962Z,969.09
2022-09-17T12:40:53.138Z,969.05
2022-09-17T12:45:52.079Z,968.98
2022-09-17T12:50:52.019Z,969.00
2022-09-17T12:55:51.948Z,968.97
2022-09-17T13:00:51.943Z,968.94
2022-09-17T13:05:51.832Z,968.94
2022-09-17T13:10:51.778Z,968.96
2022-09-17T13:15:51.748Z,968.96
2022-09-17T13:20:51.689Z,969.00
2022-09-17T13:25:51.579Z,968.88
2022-09-17T13:30:51.535Z,968.70
2022-09-17T13:35:51.454Z,968.72
2022-09-17T13:40:51.393Z,968.72
2022-09-17T13:45:51.324Z,968.82
2022-09-17T13:50:51.292Z,968.77
2022-09-17T13:55:51.211Z,968.64
2022-09-17T14:00:51.274Z,968.55
2022-09-17T14:05:51.101Z,968.49
2022-09-17T14:10:51.025Z,968.39
2022-09-17T14:15:50.998Z,968.53
2022-09-17T14:20:50.905Z,968.59
2022-09-17T14:25:50.837Z,968.60
2022-09-17T14:30:50.789Z,968.63
2022-09-17T14:35:50.733Z,968.67
2022-09-17T14:40:50.647Z,968.84
2022-09-17T14:45:50.611Z,968.74
2022-09-17T14:50:50.517Z,968.73
2022-09-17T14:55:50.459Z,968.78
2022-09-17T15:00:50.400Z,968.81
2022-09-17T15:05:50.330Z,968.83
2022-09-17T15:10:50.269Z,968.96
2022-09-17T15:15:50.214Z,969.20
2022-09-17T15:20:50.153Z,969.35
2022-09-17T15:25:50.080Z,969.51
2022-09-17T15:30:50.033Z,969.55
2022-09-17T15:35:49.953Z,969.57
2022-09-17T15:40:49.891Z,969.41
2022-09-17T15:45:49.830Z,969.30
2022-09-17T15:50:49.776Z,969.40
2022-09-17T15:55:49.705Z,969.41
2022-09-17T16:00:49.651Z,969.32
2022-09-17T16:05:54.180Z,969.36
2022-09-17T16:10:50.522Z,969.41
2022-09-17T16:15:49.491Z,969.35
2022-09-17T16:20:49.406Z,969.36
2022-09-17T16:25:49.345Z,969.47
2022-09-17T16:30:49.275Z,969.59
2022-09-17T16:35:49.234Z,969.60
2022-09-17T16:40:49.173Z,969.68
2022-09-17T16:45:49.086Z,969.68
2022-09-17T16:50:49.046Z,969.77
2022-09-17T16:55:48.965Z,969.88
2022-09-17T17:00:48.953Z,969.76
2022-09-17T17:05:48.836Z,969.85
2022-09-17T17:10:48.786Z,969.85
2022-09-17T17:15:48.791Z,969.84
2022-09-17T17:20:48.655Z,969.82
2022-09-17T17:25:48.598Z,969.84
2022-09-17T17:30:48.529Z,969.81
2022-09-17T17:35:48.460Z,969.76
2022-09-17T17:40:48.412Z,969.84
2022-09-17T17:45:48.348Z,969.97
2022-09-17T17:50:48.307Z,969.99
2022-09-17T17:55:48.210Z,970.01
2022-09-17T18:00:48.153Z,970.01
2022-09-17T18:05:48.070Z,970.08
2022-09-17T18:10:48.052Z,970.14
2022-09-17T18:15:47.984Z,970.03
2022-09-17T18:20:47.901Z,970.03
2022-09-17T18:25:47.812Z,970.03
2022-09-17T18:30:47.777Z,970.01
2022-09-17T18:35:47.708Z,969.98
2022-09-17T18:40:47.681Z,970.13
2022-09-17T18:45:47.573Z,970.14
2022-09-17T18:50:47.523Z,970.13
2022-09-17T18:55:47.452Z,970.19
2022-09-17T19:00:47.436Z,970.27
2022-09-17T19:05:47.333Z,970.38
2022-09-17T19:10:47.274Z,970.49
2022-09-17T19:15:47.259Z,970.58
2022-09-17T19:20:47.152Z,970.49
2022-09-17T19:25:47.085Z,970.39
2022-09-17T19:30:47.094Z,970.37
2022-09-17T19:35:46.955Z,970.42
2022-09-17T19:40:46.909Z,970.41
2022-09-17T19:45:46.847Z,970.40
2022-09-17T19:50:46.782Z,970.43
2022-09-17T19:55:46.707Z,970.46
2022-09-17T20:00:46.678Z,970.48
2022-09-17T20:05:46.636Z,970.44
2022-09-17T20:10:46.588Z,970.50
2022-09-17T20:15:46.593Z,970.50
2022-09-17T20:20:46.415Z,970.60
2022-09-17T20:25:46.344Z,970.59
2022-09-17T20:30:46.315Z,970.65
2022-09-17T20:35:46.247Z,970.69
2022-09-17T20:40:46.129Z,970.76
2022-09-17T20:45:46.148Z,970.75
2022-09-17T20:50:46.009Z,970.68
2022-09-17T20:55:45.929Z,970.61
2022-09-17T21:00:45.869Z,970.63
2022-09-17T21:05:45.794Z,970.71
2022-09-17T21:10:45.740Z,970.70
2022-09-17T21:15:45.721Z,970.67
2022-09-17T21:20:45.621Z,970.69
2022-09-17T21:25:45.531Z,970.75
2022-09-17T21:30:45.470Z,970.71
2022-09-17T21:35:45.400Z,970.72
2022-09-17T21:40:45.438Z,970.74
2022-09-17T21:45:45.263Z,970.69
2022-09-17T21:50:45.202Z,970.69
2022-09-17T21:55:45.136Z,970.69
2022-09-17T22:00:45.072Z,970.65
2022-09-17T22:05:44.993Z,970.66
2022-09-17T22:10:44.933Z,970.60
2022-09-17T22:15:44.884Z,970.59
2022-09-17T22:20:44.793Z,970.59
2022-09-17T22:25:44.731Z,970.62
2022-09-17T22:30:44.664Z,970.60
2022-09-17T22:35:44.593Z,970.63
2022-09-17T22:40:44.534Z,970.70
2022-09-17T22:45:44.466Z,970.68
2022-09-17T22:50:44.404Z,970.71
2022-09-17T22:55:44.346Z,970.74
2022-09-17T23:00:44.265Z,970.72
2022-09-17T23:05:44.195Z,970.62
2022-09-17T23:10:44.125Z,970.60
2022-09-17T23:15:44.097Z,970.65
2022-09-17T23:20:43.996Z,970.66
2022-09-17T23:25:43.917Z,970.73
2022-09-17T23:30:43.887Z,970.74
2022-09-17T23:35:43.777Z,970.79
2022-09-17T23:40:43.716Z,970.82
2022-09-17T23:45:43.639Z,970.82
2022-09-17T23:50:43.578Z,970.79
2022-09-17T23:55:43.506Z,970.87
